Etusivu
METAR-TAF:

METAR-TAF

Lentoasemat :

Karlstad, Ruotsi

Leveyspiiri: 59-26-41N, Pituuspiiri: 013-20-15E, korkeus merenpinnasta: 107 m

Tämänhetkinen sää

Tämä raportti tehtiin 26 minuuttia sitten, kello 23.20 UTC
Tuuli 5 kn idästä
Lämpötila -1°C
Kosteus 100%
Ilmanpaine 991 hPa
Näkyvyys: 3000 m
lumijyväsiä

METAR: ESOK 172320Z AUTO 09005KT 3000 SG FEW002/// SCT005/// BKN007/// M01/M01 Q0991 RESG REFZUP

Aika: 00:46 (23:46 UTC)

Sääennuste

Tämä raportti tehtiin 3 tuntia ja 16 minuuttia sitten, kello 20.30 UTC
Ennuste voimassa 17. päivästä klo 21 UTC - 17. päivään klo 23 UTC
Tuuli 2 kn etelästä/lounaasta
Näkyvyys 10 km tai enemmän
Pilvistä 200 ft:n korkeudessa
Ajoittain
17. päivästä klo 21 UTC - 17. päivään klo 23 UTC
Näkyvyys: 2500 m
Hajonneita pilviä 700 ft:n korkeudessa
heikkoa lumisadetta, utua

TAF: ESOK 172030Z 1721/1723 20002KT 9999 OVC002 TEMPO 1721/1723 2500 -SN BR BKN007

Säähavainnot ja -ennusteet yli 4000 lentoasemalta (METAR- ja TAF-raportit).

Käytössä olevat sääasemat on merkitty karttaan keltaisilla ja punaisilla pisteillä.

Aseta hiiri pisteen päälle nähdäksesi sääaseman nimen.

Klikkaa sitten nähdäksesi säähavainnot ja -ennusteet.

Kartan vaihtaminen: klikkaa mustalla rastilla varustettuja vihreitä pisteitä, niin voit zoomata sisään; viivalla varustettua vihreää pistettä, niin voit zoomata ulos tai vihreitä nuolia, niin pääset viereisille kartoille.


METAR-TAF: